| Date | Time | Temp. (oF) | Dew Point (oF) | Rel. Hum. (%) | Press. (in.) | Wind Dir. | Wind Speed (mph) | Hourly Rainfall (in.) |
|
|---|---|---|---|---|---|---|---|---|---|
| 1 | 04/28 | 00:00 | 75 | 51 | 44 | 30.23 | SSW | 4 | 0.00 |
| 2 | 04/27 | 23:00 | 75 | 51 | 44 | 30.23 | SSW | 2 | 0.00 |
| 3 | 04/27 | 22:00 | 75 | 50 | 43 | 30.23 | SSW | 2 | 0.00 |
| 4 | 04/27 | 21:00 | 78 | 50 | 39 | 30.21 | S | 4 | 0.00 |
| 5 | 04/27 | 20:00 | 83 | 51 | 34 | 30.19 | S | 3 | 0.00 |
| 6 | 04/27 | 19:00 | 87 | 53 | 32 | 30.18 | SSE | 8 | 0.00 |
| 7 | 04/27 | 18:00 | 90 | 47 | 24 | 30.18 | SSW | 8 | 0.00 |
| 8 | 04/27 | 17:00 | 92 | 50 | 25 | 30.18 | SSW | 9 | 0.00 |
| 9 | 04/27 | 16:00 | 92 | 51 | 26 | 30.20 | WSW | 7 | 0.00 |
| 10 | 04/27 | 15:00 | 91 | 53 | 29 | 30.22 | SW | 10 | 0.00 |
| 11 | 04/27 | 14:00 | 91 | 54 | 30 | 30.24 | SW | 4 | 0.00 |
| 12 | 04/27 | 13:00 | 89 | 54 | 31 | 30.25 | NW | 4 | 0.00 |
| 13 | 04/27 | 12:00 | 87 | 54 | 33 | 30.28 | WNW | 3 | 0.00 |
| 14 | 04/27 | 11:00 | 85 | 61 | 46 | 30.29 | SW | 4 | 0.00 |
| 15 | 04/27 | 10:00 | 80 | 59 | 50 | 30.29 | SW | 4 | 0.00 |
| 16 | 04/27 | 09:00 | 75 | 58 | 56 | 30.29 | SW | 4 | 0.00 |
| 17 | 04/27 | 08:00 | 68 | 58 | 73 | 30.29 | WSW | 2 | 0.00 |
| 18 | 04/27 | 07:00 | 63 | 54 | 74 | 30.28 | WSW | 0 | 0.00 |
| 19 | 04/27 | 06:00 | 64 | 52 | 66 | 30.26 | WSW | 0 | 0.00 |
| 20 | 04/27 | 05:00 | 68 | 53 | 59 | 30.24 | WSW | 0 | 0.00 |
| 21 | 04/27 | 04:00 | 72 | 52 | 51 | 30.24 | WSW | 2 | 0.00 |
| 22 | 04/27 | 03:00 | 74 | 52 | 48 | 30.23 | SW | 4 | 0.00 |
| 23 | 04/27 | 02:00 | 76 | 52 | 44 | 30.24 | SW | 4 | 0.00 |
| 24 | 04/27 | 01:00 | 77 | 52 | 43 | 30.24 | SSW | 5 | 0.00 |